Time;durP1;ratioP1;P1;durP2;ratioP2;P2;SDS_P1;SDS_P2;PMS_P1;PMS_P2;Temp;Humidity;BMP_temperature;BMP_pressure;BME280_temperature;BME280_humidity;BME280_pressure;Samples;Min_cycle;Max_cycle;Signal;HPM_P1;HPM_P2
2023/09/28 00:01:52;;;;;;;15.45;3.40;;;14.10;99.90;;;13.44;100.00;101322.31;4187073;28;20024;-74
2023/09/28 00:03:53;;;;;;;17.30;3.55;;;14.10;99.90;;;13.41;100.00;101330.59;4186867;28;20044;-74
2023/09/28 00:05:54;;;;;;;22.20;3.95;;;14.00;99.90;;;13.39;100.00;101332.53;4186769;28;20079;-74
2023/09/28 00:07:55;;;;;;;24.10;4.15;;;14.00;99.90;;;13.38;100.00;101330.91;4186890;28;20103;-74
2023/09/28 00:09:56;;;;;;;19.33;4.22;;;14.00;99.90;;;13.32;100.00;101325.22;4186631;28;20097;-74
2023/09/28 00:11:57;;;;;;;14.63;3.70;;;13.90;99.90;;;13.28;100.00;101315.97;4196942;28;20016;-74
2023/09/28 00:13:57;;;;;;;16.42;3.35;;;13.90;99.90;;;13.25;100.00;101321.56;4189588;28;20036;-74
2023/09/28 00:15:58;;;;;;;17.42;3.45;;;13.90;99.90;;;13.20;100.00;101326.50;4186780;28;20025;-74
2023/09/28 00:17:59;;;;;;;13.93;3.33;;;13.90;99.90;;;13.14;100.00;101327.13;4192616;28;20111;-74
2023/09/28 00:20:00;;;;;;;19.60;3.35;;;13.90;99.90;;;13.13;100.00;101333.44;4185585;28;20029;-74
2023/09/28 00:22:01;;;;;;;18.70;3.45;;;13.80;99.90;;;13.10;100.00;101327.63;4199909;28;20037;-74
2023/09/28 00:24:02;;;;;;;17.65;3.42;;;13.80;99.90;;;13.06;100.00;101332.38;4188637;28;20028;-74
2023/09/28 00:26:03;;;;;;;21.00;4.25;;;13.80;99.90;;;13.07;100.00;101339.34;4186327;28;20400;-74
2023/09/28 00:28:05;;;;;;;17.17;2.88;;;13.70;99.90;;;13.05;100.00;101329.88;4186475;28;20025;-74
2023/09/28 00:30:13;;;;;;;14.82;3.22;;;13.70;99.90;;;13.05;100.00;101332.53;4184947;28;20028;-74
2023/09/28 00:32:14;;;;;;;16.90;3.28;;;13.70;99.90;;;13.00;100.00;101340.94;4189113;28;20093;-74
2023/09/28 00:34:15;;;;;;;11.65;3.15;;;13.70;99.90;;;13.02;100.00;101340.78;4186458;28;20029;-74
2023/09/28 00:36:16;;;;;;;15.60;2.63;;;13.70;99.90;;;13.01;100.00;101347.06;4188365;28;20021;-74
2023/09/28 00:38:17;;;;;;;18.90;2.90;;;13.70;99.90;;;12.99;100.00;101349.84;4186031;28;20071;-74
2023/09/28 00:40:20;;;;;;;20.30;4.05;;;13.60;99.90;;;12.98;100.00;101357.97;4186372;28;20025;-74
2023/09/28 00:42:22;;;;;;;14.73;2.33;;;13.60;99.90;;;12.98;100.00;101363.28;4186106;28;20494;-75
2023/09/28 00:44:23;;;;;;;17.90;3.08;;;13.60;99.90;;;12.98;100.00;101356.16;4195840;28;20024;-74
2023/09/28 00:46:29;;;;;;;10.98;2.60;;;13.60;99.90;;;12.94;100.00;101351.31;4202730;28;20024;-74
2023/09/28 00:48:30;;;;;;;11.05;3.10;;;13.60;99.90;;;12.94;100.00;101357.47;4198808;28;20028;-75
2023/09/28 00:50:32;;;;;;;13.70;3.55;;;13.60;99.90;;;12.93;100.00;101360.28;4194762;28;20061;-74
2023/09/28 00:52:33;;;;;;;15.48;3.08;;;13.60;99.90;;;12.93;100.00;101350.47;4184941;28;20025;-74
2023/09/28 00:54:35;;;;;;;13.45;2.25;;;13.60;99.90;;;12.93;100.00;101347.84;4199428;28;20111;-74
2023/09/28 00:56:36;;;;;;;10.45;2.55;;;13.60;99.90;;;12.91;100.00;101352.47;4197902;28;20025;-74
2023/09/28 00:58:38;;;;;;;8.70;2.38;;;13.60;99.90;;;12.90;100.00;101361.41;4187451;28;20472;-74
2023/09/28 01:00:40;;;;;;;9.52;2.15;;;13.60;99.90;;;12.90;100.00;101360.59;4191611;28;20154;-74
2023/09/28 01:02:41;;;;;;;11.63;2.25;;;13.50;99.90;;;12.91;100.00;101360.41;4185906;28;20033;-74
2023/09/28 01:04:42;;;;;;;17.52;3.70;;;13.50;99.90;;;12.93;100.00;101361.06;4186039;28;20028;-74
2023/09/28 01:06:43;;;;;;;14.40;2.88;;;13.60;99.90;;;12.93;100.00;101366.38;4185842;28;20024;-74
2023/09/28 01:08:43;;;;;;;20.10;3.72;;;13.60;99.90;;;12.94;100.00;101362.75;4187941;28;20025;-74
2023/09/28 01:10:45;;;;;;;18.85;2.88;;;13.60;99.90;;;12.90;100.00;101358.78;4188295;28;20520;-74
2023/09/28 01:12:47;;;;;;;18.42;3.38;;;13.60;99.90;;;12.91;100.00;101362.22;4184431;28;20056;-74
2023/09/28 01:14:49;;;;;;;12.98;2.28;;;13.60;99.90;;;12.90;100.00;101369.38;4190867;28;20056;-74
2023/09/28 01:16:50;;;;;;;9.27;3.03;;;13.60;99.90;;;12.89;100.00;101366.84;4194075;28;20020;-74
2023/09/28 01:18:51;;;;;;;13.82;2.58;;;13.60;99.90;;;12.85;100.00;101368.97;4202166;28;20082;-74
2023/09/28 01:20:52;;;;;;;12.90;2.78;;;13.50;99.90;;;12.82;100.00;101373.75;4186359;28;20029;-74
2023/09/28 01:22:53;;;;;;;10.13;2.35;;;13.50;99.90;;;12.78;100.00;101365.31;4185688;28;20033;-74
2023/09/28 01:24:54;;;;;;;18.92;3.53;;;13.50;99.90;;;12.74;100.00;101366.59;4193734;28;20025;-74
2023/09/28 01:26:55;;;;;;;14.05;2.78;;;13.40;99.90;;;12.69;100.00;101363.59;4185310;28;20408;-74
2023/09/28 01:28:57;;;;;;;13.57;3.60;;;13.40;99.90;;;12.67;100.00;101365.53;4186490;28;20017;-74
2023/09/28 01:30:58;;;;;;;15.50;2.95;;;13.30;99.90;;;12.67;100.00;101360.25;4190211;28;20071;-74
2023/09/28 01:32:59;;;;;;;13.95;2.75;;;13.30;99.90;;;12.62;100.00;101351.94;4187789;28;20025;-74
2023/09/28 01:35:01;;;;;;;10.90;2.95;;;13.30;99.90;;;12.59;100.00;101352.25;4196563;28;20036;-74
2023/09/28 01:37:02;;;;;;;11.57;2.47;;;13.30;99.90;;;12.57;100.00;101346.28;4186057;28;20018;-74
2023/09/28 01:39:07;;;;;;;13.40;2.25;;;13.30;99.90;;;12.57;100.00;101344.44;4189904;28;20086;-74
2023/09/28 01:41:08;;;;;;;16.45;2.33;;;13.20;99.90;;;12.54;100.00;101347.44;4200535;28;20810;-74
2023/09/28 01:43:10;;;;;;;10.18;2.22;;;13.20;99.90;;;12.54;100.00;101338.66;4185382;28;20029;-74
2023/09/28 01:45:11;;;;;;;12.35;2.50;;;13.20;99.90;;;12.51;100.00;101344.25;4200584;28;20093;-74
2023/09/28 01:47:12;;;;;;;11.32;2.35;;;13.20;99.90;;;12.49;100.00;101347.03;4194707;28;20032;-74
2023/09/28 01:49:13;;;;;;;9.15;2.00;;;13.20;99.90;;;12.49;100.00;101332.97;4190851;28;20017;-74
2023/09/28 01:51:14;;;;;;;9.23;2.60;;;13.20;99.90;;;12.46;100.00;101336.75;4189229;28;20074;-74
2023/09/28 01:53:15;;;;;;;14.02;2.80;;;13.20;99.90;;;12.44;100.00;101338.75;4183894;28;20017;-74
2023/09/28 01:55:16;;;;;;;19.58;3.22;;;13.10;99.90;;;12.44;100.00;101340.56;4185344;28;20032;-74
2023/09/28 01:57:17;;;;;;;16.20;3.38;;;13.10;99.90;;;12.44;100.00;101340.56;4184852;28;20029;-74
2023/09/28 01:59:17;;;;;;;17.83;3.67;;;13.10;99.90;;;12.44;100.00;101335.25;4198671;28;20027;-74
2023/09/28 02:01:28;;;;;;;10.43;2.88;;;13.10;99.90;;;12.45;100.00;101334.28;4185855;28;20025;-74
2023/09/28 02:03:29;;;;;;;8.98;2.65;;;13.10;99.90;;;12.45;100.00;101342.22;4191008;28;20025;-74
2023/09/28 02:05:32;;;;;;;12.30;2.53;;;13.10;99.90;;;12.44;100.00;101348.50;4185298;28;20056;-74
2023/09/28 02:07:34;;;;;;;10.88;2.28;;;13.10;99.90;;;12.41;100.00;101344.34;4200336;28;20021;-74
2023/09/28 02:09:35;;;;;;;15.10;2.65;;;13.10;99.90;;;12.44;100.00;101343.19;4188141;28;20052;-74
2023/09/28 02:11:43;;;;;;;11.68;2.97;;;13.10;99.90;;;12.46;100.00;101336.75;4184957;28;20086;-74
2023/09/28 02:13:44;;;;;;;9.60;2.45;;;13.10;99.90;;;12.44;100.00;101338.75;4185231;28;20021;-74
2023/09/28 02:15:45;;;;;;;16.73;3.17;;;13.10;99.90;;;12.42;100.00;101337.25;4197916;28;20515;-74
2023/09/28 02:17:46;;;;;;;11.18;2.50;;;13.10;99.90;;;12.40;100.00;101342.66;4196628;28;20032;-74
2023/09/28 02:19:49;;;;;;;18.13;3.53;;;13.10;99.90;;;12.40;100.00;101334.72;4189293;28;20025;-74
2023/09/28 02:21:53;;;;;;;9.02;2.50;;;13.10;99.90;;;12.39;100.00;101335.75;4188481;28;20051;-74
2023/09/28 02:23:54;;;;;;;8.88;2.67;;;13.10;99.90;;;12.35;100.00;101331.72;4201541;28;20032;-74
2023/09/28 02:25:57;;;;;;;12.80;2.22;;;13.10;99.90;;;12.39;100.00;101329.59;4187032;28;20037;-74
2023/09/28 02:27:58;;;;;;;16.75;4.00;;;13.10;99.90;;;12.38;100.00;101327.94;4188398;28;20032;-74
2023/09/28 02:29:59;;;;;;;14.60;2.92;;;13.10;99.90;;;12.39;100.00;101326.97;4188337;28;20106;-74
2023/09/28 02:32:00;;;;;;;13.77;3.00;;;13.10;99.90;;;12.36;100.00;101324.63;4188229;28;20079;-74
2023/09/28 02:34:00;;;;;;;14.80;2.20;;;13.10;99.90;;;12.38;100.00;101326.13;4188377;28;20033;-74
2023/09/28 02:36:01;;;;;;;15.95;3.03;;;13.00;99.90;;;12.37;100.00;101335.03;4191879;28;20032;-74
2023/09/28 02:38:03;;;;;;;15.90;3.38;;;13.10;99.90;;;12.33;100.00;101335.50;4188336;28;20032;-74
2023/09/28 02:40:05;;;;;;;11.00;2.53;;;13.10;99.90;;;12.30;100.00;101334.00;4198772;28;20045;-74
2023/09/28 02:42:07;;;;;;;12.13;2.47;;;13.00;99.90;;;12.32;100.00;101333.84;4187924;28;20396;-74
2023/09/28 02:44:08;;;;;;;11.30;2.70;;;13.00;99.90;;;12.34;100.00;101331.88;4195622;28;20062;-74
2023/09/28 02:46:09;;;;;;;16.70;2.97;;;13.00;99.90;;;12.36;100.00;101336.03;4192869;28;20025;-74
2023/09/28 02:48:10;;;;;;;16.98;2.97;;;13.10;99.90;;;12.41;100.00;101336.41;4188060;28;20037;-74
2023/09/28 02:50:13;;;;;;;10.70;2.35;;;13.10;99.90;;;12.46;100.00;101339.41;4188025;28;20044;-74
2023/09/28 02:52:14;;;;;;;11.40;2.58;;;13.20;99.90;;;12.53;100.00;101337.00;4194673;28;20040;-74
2023/09/28 02:54:16;;;;;;;6.50;2.30;;;13.20;99.90;;;12.59;100.00;101344.31;4189209;28;20036;-74
2023/09/28 02:56:17;;;;;;;10.52;2.50;;;13.20;99.90;;;12.65;100.00;101341.06;4189940;28;20021;-74
2023/09/28 02:58:18;;;;;;;12.45;2.72;;;13.30;99.90;;;12.66;100.00;101326.84;4188001;28;20107;-74
2023/09/28 03:02:20;;;;;;;8.95;2.83;;;13.40;99.90;;;12.73;100.00;101336.63;4188038;28;20048;-74
2023/09/28 03:04:21;;;;;;;13.40;3.03;;;13.40;99.90;;;12.76;100.00;101332.84;4200941;28;20028;-74
2023/09/28 03:06:21;;;;;;;26.77;5.65;;;13.40;99.90;;;12.88;100.00;101331.59;4186693;28;20458;-74
2023/09/28 03:08:23;;;;;;;25.17;4.63;;;13.50;99.90;;;12.98;100.00;101328.84;4193965;28;20033;-74
2023/09/28 03:10:24;;;;;;;18.55;3.55;;;13.60;99.90;;;13.07;100.00;101331.38;4197117;28;20024;-74
2023/09/28 03:12:24;;;;;;;24.52;3.95;;;13.70;99.90;;;13.14;100.00;101318.38;4203798;28;20052;-74
2023/09/28 03:14:26;;;;;;;15.35;2.63;;;13.80;99.90;;;13.18;100.00;101314.41;4204260;28;20047;-74
2023/09/28 03:16:27;;;;;;;22.50;3.03;;;13.80;99.90;;;13.18;100.00;101327.66;4204132;28;20028;-74
2023/09/28 03:18:28;;;;;;;14.93;3.83;;;13.80;99.90;;;13.14;100.00;101335.06;4191957;28;20044;-74
2023/09/28 03:20:30;;;;;;;21.35;2.83;;;13.90;99.90;;;13.09;100.00;101334.72;4187608;28;20032;-74
2023/09/28 03:22:31;;;;;;;24.30;4.47;;;13.80;99.90;;;13.05;100.00;101337.84;4187652;28;20487;-74
2023/09/28 03:24:32;;;;;;;15.35;3.13;;;13.80;99.90;;;13.00;100.00;101343.59;4187619;28;20590;-74
2023/09/28 03:26:33;;;;;;;21.08;3.50;;;13.70;99.90;;;12.98;100.00;101339.44;4187201;28;20029;-74
2023/09/28 03:28:36;;;;;;;13.63;3.08;;;13.70;99.90;;;12.93;100.00;101324.00;4187332;28;20031;-74
2023/09/28 03:30:36;;;;;;;15.77;3.20;;;13.70;99.90;;;12.97;100.00;101327.19;4189035;28;20062;-74
2023/09/28 03:32:39;;;;;;;15.57;2.97;;;13.60;99.90;;;12.97;100.00;101327.19;4187649;28;20022;-74
2023/09/28 03:34:39;;;;;;;13.55;2.67;;;13.70;99.90;;;13.02;100.00;101333.66;4192445;28;20391;-74
2023/09/28 03:36:40;;;;;;;17.10;3.28;;;13.70;99.90;;;13.04;100.00;101334.34;4188586;28;20021;-74
2023/09/28 03:38:41;;;;;;;15.45;3.35;;;13.70;99.90;;;13.03;100.00;101339.78;4187214;28;20060;-74
2023/09/28 03:40:43;;;;;;;15.98;2.92;;;13.70;99.90;;;13.05;100.00;101343.13;4193533;28;20577;-74
2023/09/28 03:42:48;;;;;;;11.07;3.03;;;13.70;99.90;;;13.05;100.00;101330.69;4187155;28;20021;-74
2023/09/28 03:44:49;;;;;;;12.55;2.28;;;13.70;99.90;;;13.08;100.00;101326.97;4199125;28;20024;-74
2023/09/28 03:46:50;;;;;;;14.05;2.92;;;13.70;99.90;;;13.11;100.00;101330.09;4203731;28;20472;-74
2023/09/28 03:48:51;;;;;;;14.98;2.63;;;13.80;99.90;;;13.10;100.00;101324.97;4203734;28;20033;-74
2023/09/28 03:50:52;;;;;;;9.15;2.67;;;13.80;99.90;;;13.12;100.00;101321.16;4203576;28;20032;-74
2023/09/28 03:52:52;;;;;;;11.88;3.05;;;13.80;99.90;;;13.13;100.00;101319.34;4189430;28;20017;-74
2023/09/28 03:54:53;;;;;;;10.95;2.42;;;13.80;99.90;;;13.12;100.00;101304.44;4187053;28;20029;-74
2023/09/28 03:56:55;;;;;;;16.45;2.63;;;13.80;99.90;;;13.14;100.00;101300.66;4191390;28;20032;-74
2023/09/28 03:58:56;;;;;;;13.07;2.60;;;13.80;99.90;;;13.12;100.00;101294.69;4187023;28;20025;-74
2023/09/28 04:00:57;;;;;;;17.17;2.92;;;13.80;99.90;;;13.12;100.00;101307.09;4186724;28;20043;-74
2023/09/28 04:02:58;;;;;;;16.98;3.70;;;13.80;99.90;;;13.11;100.00;101316.03;4186794;28;20031;-74
2023/09/28 04:04:59;;;;;;;13.75;2.95;;;13.80;99.90;;;13.15;100.00;101310.25;4191379;28;20024;-74
2023/09/28 04:07:00;;;;;;;9.73;2.10;;;13.80;99.90;;;13.18;100.00;101306.47;4186878;28;20068;-74
2023/09/28 04:09:02;;;;;;;14.32;4.78;;;13.90;99.90;;;13.20;100.00;101313.25;4186712;28;20036;-74
2023/09/28 04:11:03;;;;;;;15.02;2.83;;;13.90;99.90;;;13.21;100.00;101330.81;4187606;28;20108;-74
2023/09/28 04:13:04;;;;;;;11.27;2.13;;;13.90;99.90;;;13.25;100.00;101318.94;4198076;28;20017;-75
2023/09/28 04:15:07;;;;;;;13.90;2.63;;;13.90;99.90;;;13.26;100.00;101317.91;4194173;28;20016;-75
2023/09/28 04:17:08;;;;;;;12.43;2.97;;;13.90;99.90;;;13.29;100.00;101320.25;4186836;28;20075;-75
2023/09/28 04:19:09;;;;;;;7.22;2.25;;;14.00;99.90;;;13.32;100.00;101315.63;4200462;28;20487;-74
2023/09/28 04:21:10;;;;;;;15.45;2.85;;;14.00;99.90;;;13.32;100.00;101331.53;4186742;28;20024;-74
2023/09/28 04:23:12;;;;;;;14.90;3.17;;;14.00;99.90;;;13.30;100.00;101332.50;4186641;28;20067;-74
2023/09/28 04:25:14;;;;;;;20.02;3.05;;;14.00;99.90;;;13.32;100.00;101314.63;4186570;28;20025;-74
2023/09/28 04:27:16;;;;;;;15.85;2.95;;;14.00;99.90;;;13.30;100.00;101302.53;4186188;28;20025;-74
2023/09/28 04:29:17;;;;;;;14.25;2.35;;;14.00;99.90;;;13.22;100.00;101303.34;4186500;28;20068;-74
2023/09/28 04:31:18;;;;;;;10.82;2.63;;;14.00;99.90;;;13.16;100.00;101308.44;4193917;28;20154;-74
2023/09/28 04:33:19;;;;;;;14.05;2.38;;;13.90;99.90;;;13.08;100.00;101317.16;4201643;28;20123;-75
2023/09/28 04:35:21;;;;;;;10.98;2.30;;;13.80;99.90;;;13.03;100.00;101314.13;4189939;28;20021;-75
2023/09/28 04:37:23;;;;;;;11.32;2.72;;;13.80;99.90;;;13.00;100.00;101327.69;4190209;28;20029;-74
2023/09/28 04:39:25;;;;;;;13.38;2.47;;;13.70;99.90;;;12.96;100.00;101344.88;4184980;28;20625;-74
2023/09/28 04:41:26;;;;;;;12.32;2.20;;;13.70;99.90;;;12.96;100.00;101328.19;4196566;28;20028;-74
2023/09/28 04:43:28;;;;;;;16.45;2.72;;;13.70;99.90;;;12.92;100.00;101321.53;4199504;28;20076;-74
2023/09/28 04:45:29;;;;;;;11.85;2.30;;;13.70;99.90;;;12.86;100.00;101325.63;4186294;28;20021;-74
2023/09/28 04:47:29;;;;;;;15.13;3.13;;;13.60;99.90;;;12.81;100.00;101327.09;4186255;28;20043;-74
2023/09/28 04:49:30;;;;;;;13.07;3.20;;;13.60;99.90;;;12.72;100.00;101320.94;4196697;28;20033;-74
2023/09/28 04:51:31;;;;;;;13.75;3.75;;;13.50;99.90;;;12.70;100.00;101330.81;4186038;28;20028;-74
2023/09/28 04:53:32;;;;;;;13.07;2.60;;;13.50;99.90;;;12.68;100.00;101325.69;4186134;28;20044;-74
2023/09/28 04:55:33;;;;;;;13.15;2.92;;;13.50;99.90;;;12.72;100.00;101331.50;4193346;28;20024;-74
2023/09/28 04:57:34;;;;;;;14.50;3.35;;;13.50;99.90;;;12.72;100.00;101324.38;4201080;28;20021;-74
2023/09/28 04:59:38;;;;;;;13.75;4.03;;;13.40;99.90;;;12.68;100.00;101316.91;4199625;28;20372;-74
2023/09/28 05:01:39;;;;;;;11.50;3.33;;;13.40;99.90;;;12.68;100.00;101327.50;4184847;28;20059;-74
2023/09/28 05:03:40;;;;;;;18.02;2.97;;;13.40;99.90;;;12.66;100.00;101337.44;4193359;28;20021;-74
2023/09/28 05:05:41;;;;;;;16.63;3.38;;;13.40;99.90;;;12.65;100.00;101327.81;4201306;28;20025;-74
2023/09/28 05:07:42;;;;;;;9.07;2.25;;;13.40;99.90;;;12.64;100.00;101326.16;4201012;28;20032;-74
2023/09/28 05:09:44;;;;;;;9.93;2.90;;;13.40;99.90;;;12.62;100.00;101318.38;4202420;28;20041;-74
2023/09/28 05:11:45;;;;;;;9.80;2.85;;;13.30;99.90;;;12.63;100.00;101333.25;4192896;28;20071;-74
2023/09/28 05:13:47;;;;;;;14.48;2.95;;;13.30;99.90;;;12.61;100.00;101334.38;4185790;28;20024;-74
2023/09/28 05:15:48;;;;;;;12.35;3.10;;;13.30;99.90;;;12.60;100.00;101322.97;4185669;28;20081;-74
2023/09/28 05:17:49;;;;;;;11.20;2.63;;;13.30;99.90;;;12.57;100.00;101323.28;4189258;28;20024;-74
2023/09/28 05:19:49;;;;;;;10.75;2.08;;;13.30;99.90;;;12.56;100.00;101326.09;4193138;28;20029;-74
2023/09/28 05:21:50;;;;;;;10.63;2.63;;;13.30;99.90;;;12.52;100.00;101322.09;4184378;28;20661;-74
2023/09/28 05:23:51;;;;;;;11.30;2.55;;;13.30;99.90;;;12.50;100.00;101316.97;4198617;28;20082;-74
2023/09/28 05:25:52;;;;;;;12.25;3.03;;;13.30;99.90;;;12.48;100.00;101318.09;4191684;28;20036;-74
2023/09/28 05:27:53;;;;;;;9.88;2.17;;;13.20;99.90;;;12.49;100.00;101314.47;4195910;28;20029;-74
2023/09/28 05:29:54;;;;;;;8.57;2.28;;;13.20;99.90;;;12.48;100.00;101302.22;4185401;28;20420;-74
2023/09/28 05:31:54;;;;;;;11.40;2.83;;;13.20;99.90;;;12.48;100.00;101311.00;4197870;28;20079;-74
2023/09/28 05:33:55;;;;;;;11.02;1.90;;;13.10;99.90;;;12.43;100.00;101312.44;4186281;28;20033;-74
2023/09/28 05:35:56;;;;;;;7.85;2.30;;;13.20;99.90;;;12.43;100.00;101317.72;4195634;28;20024;-74
2023/09/28 05:37:57;;;;;;;7.07;2.13;;;13.20;99.90;;;12.38;100.00;101315.53;4185567;28;20444;-74
2023/09/28 05:40:00;;;;;;;11.88;2.20;;;13.10;99.90;;;12.34;100.00;101319.47;4185203;28;20060;-74
2023/09/28 05:42:01;;;;;;;10.02;2.33;;;13.10;99.90;;;12.32;100.00;101323.25;4200249;28;20089;-74
2023/09/28 05:44:02;;;;;;;14.32;2.60;;;13.00;99.90;;;12.26;100.00;101330.00;4201997;28;20031;-74
2023/09/28 05:46:04;;;;;;;10.93;2.55;;;13.00;99.90;;;12.27;100.00;101333.47;4200644;28;20033;-74
2023/09/28 05:48:05;;;;;;;12.75;2.65;;;13.00;99.90;;;12.25;100.00;101332.78;4201939;28;20103;-74
2023/09/28 05:50:07;;;;;;;8.48;2.17;;;13.00;99.90;;;12.28;100.00;101332.47;4184299;28;20038;-74
2023/09/28 05:52:08;;;;;;;7.40;2.13;;;13.00;99.90;;;12.29;100.00;101329.69;4185401;28;20111;-74
2023/09/28 05:54:09;;;;;;;9.68;2.03;;;13.00;99.90;;;12.31;100.00;101337.47;4184700;28;20142;-74
2023/09/28 05:56:09;;;;;;;8.20;2.10;;;13.00;99.90;;;12.28;100.00;101321.88;4196729;28;20024;-74
2023/09/28 05:58:10;;;;;;;7.90;1.65;;;13.00;99.90;;;12.30;100.00;101323.44;4184828;28;20472;-74
2023/09/28 06:00:13;;;;;;;15.60;2.92;;;13.00;99.90;;;12.30;100.00;101325.25;4191326;28;20028;-74
2023/09/28 06:02:15;;;;;;;9.00;2.15;;;13.00;99.90;;;12.29;100.00;101319.09;4193609;28;20033;-74
2023/09/28 06:04:15;;;;;;;7.07;2.15;;;13.00;99.90;;;12.27;100.00;101323.72;4187760;28;20451;-74
2023/09/28 06:06:19;;;;;;;10.43;2.20;;;12.90;99.90;;;12.26;100.00;101327.34;4185001;28;20037;-74
2023/09/28 06:08:20;;;;;;;9.38;1.80;;;12.90;99.90;;;12.20;100.00;101320.84;4190096;28;20086;-74
2023/09/28 06:10:21;;;;;;;5.05;1.90;;;12.90;99.90;;;12.16;100.00;101330.06;4184931;28;20065;-74
2023/09/28 06:12:22;;;;;;;9.18;1.63;;;12.90;99.90;;;12.12;100.00;101326.09;4184757;28;20056;-74
2023/09/28 06:14:23;;;;;;;6.43;1.55;;;12.80;99.90;;;12.08;100.00;101326.53;4199584;28;20048;-74
2023/09/28 06:16:28;;;;;;;8.27;1.75;;;12.80;99.90;;;12.07;100.00;101330.16;4185176;28;20028;-74
2023/09/28 06:18:28;;;;;;;8.63;2.10;;;12.80;99.90;;;12.03;100.00;101324.34;4185070;28;20030;-74
2023/09/28 06:20:29;;;;;;;9.25;1.92;;;12.80;99.90;;;12.01;100.00;101326.28;4185074;28;20032;-74
2023/09/28 06:22:30;;;;;;;12.63;2.53;;;12.70;99.90;;;12.02;100.00;101324.47;4199854;28;20036;-74
2023/09/28 06:24:31;;;;;;;9.57;2.33;;;12.70;99.90;;;12.02;100.00;101333.25;4185631;28;20025;-74
2023/09/28 06:26:32;;;;;;;7.15;2.05;;;12.70;99.90;;;12.04;100.00;101347.16;4191158;28;20512;-74
2023/09/28 06:28:33;;;;;;;14.38;2.30;;;12.70;99.90;;;12.04;100.00;101347.16;4183886;28;20095;-74
2023/09/28 06:30:34;;;;;;;10.60;1.75;;;12.70;99.90;;;12.04;100.00;101338.38;4184687;28;20029;-74
2023/09/28 06:32:35;;;;;;;8.68;1.98;;;12.70;99.90;;;12.04;100.00;101341.84;4189442;28;20032;-74
2023/09/28 06:34:36;;;;;;;8.63;2.10;;;12.70;99.90;;;12.04;100.00;101344.50;4194018;28;20029;-74
2023/09/28 06:36:37;;;;;;;7.50;1.88;;;12.70;99.90;;;12.07;100.00;101335.44;4196740;28;20020;-74
2023/09/28 06:38:38;;;;;;;5.88;1.67;;;12.80;99.90;;;12.09;100.00;101339.63;4185229;28;20060;-74
2023/09/28 06:40:40;;;;;;;7.22;1.77;;;12.80;99.90;;;12.16;100.00;101348.59;4189336;28;20033;-74
2023/09/28 06:42:40;;;;;;;6.43;2.20;;;12.80;99.90;;;12.24;100.00;101352.28;4188565;28;20120;-74
2023/09/28 06:44:41;;;;;;;12.13;2.63;;;12.90;99.90;;;12.34;100.00;101343.28;4184992;28;20025;-74
2023/09/28 06:46:44;;;;;;;9.40;2.28;;;13.00;99.90;;;12.45;100.00;101340.41;4193008;28;20029;-74
2023/09/28 06:48:45;;;;;;;9.60;2.20;;;13.10;99.90;;;12.58;100.00;101337.34;4184906;28;20025;-74
2023/09/28 06:50:47;;;;;;;8.07;2.33;;;13.20;99.90;;;12.72;100.00;101348.19;4184652;28;20049;-74
2023/09/28 06:52:48;;;;;;;6.32;2.08;;;13.30;99.90;;;12.81;100.00;101333.22;4187460;28;20021;-75
2023/09/28 06:54:49;;;;;;;12.02;3.00;;;13.40;99.90;;;12.90;100.00;101323.50;4199313;28;20066;-75
2023/09/28 06:56:50;;;;;;;8.82;2.83;;;13.60;99.90;;;13.02;100.00;101333.66;4184573;28;20048;-75
2023/09/28 06:58:51;;;;;;;10.63;2.13;;;13.60;99.90;;;13.13;100.00;101336.09;4184751;28;20036;-74
2023/09/28 07:00:53;;;;;;;14.02;2.50;;;13.80;99.90;;;13.24;100.00;101333.16;4184919;28;20033;-74
2023/09/28 07:02:55;;;;;;;6.55;1.80;;;13.90;99.90;;;13.35;100.00;101337.31;4184846;28;20025;-74
2023/09/28 07:04:56;;;;;;;13.20;3.10;;;14.00;99.90;;;13.49;100.00;101349.16;4186143;28;20108;-74
2023/09/28 07:06:57;;;;;;;14.40;2.25;;;14.10;99.90;;;13.62;100.00;101341.59;4195769;28;20511;-74
2023/09/28 07:08:58;;;;;;;11.40;2.65;;;14.20;99.90;;;13.78;100.00;101352.22;4186588;28;20029;-74
2023/09/28 07:10:59;;;;;;;10.93;2.13;;;14.30;99.90;;;13.92;100.00;101362.19;4201284;28;20412;-74
2023/09/28 07:13:02;;;;;;;8.75;2.05;;;14.50;99.90;;;14.05;100.00;101356.44;4214373;28;20017;-74
2023/09/28 07:15:04;;;;;;;10.95;2.00;;;14.60;99.90;;;14.18;100.00;101352.31;4195542;28;20027;-74
2023/09/28 07:17:05;;;;;;;8.23;2.30;;;14.70;99.90;;;14.26;100.00;101365.59;4187633;28;20492;-75
2023/09/28 07:19:06;;;;;;;6.47;1.73;;;14.80;99.90;;;14.36;100.00;101368.94;4201850;28;20142;-75
2023/09/28 07:21:07;;;;;;;4.38;1.83;;;14.90;99.90;;;14.41;100.00;101357.81;4187452;28;20443;-75
2023/09/28 07:23:08;;;;;;;5.22;1.52;;;15.00;99.90;;;14.53;100.00;101359.16;4191879;28;20027;-75
2023/09/28 07:25:09;;;;;;;13.60;3.13;;;15.10;99.90;;;14.62;100.00;101362.63;4191768;28;20451;-75
2023/09/28 07:27:10;;;;;;;10.80;3.05;;;15.20;99.90;;;14.68;100.00;101354.81;4187165;28;20408;-74
2023/09/28 07:29:11;;;;;;;15.52;3.25;;;15.30;99.90;;;14.78;100.00;101367.94;4191753;28;20511;-74
2023/09/28 07:31:13;;;;;;;17.13;3.22;;;15.40;99.90;;;14.85;100.00;101368.91;4186214;28;20025;-75
2023/09/28 07:33:15;;;;;;;16.23;4.13;;;15.50;99.90;;;15.01;100.00;101370.72;4198334;28;20024;-75
2023/09/28 07:35:18;;;;;;;19.00;4.38;;;15.60;99.90;;;15.08;100.00;101363.72;4199322;28;20020;-75
2023/09/28 07:37:19;;;;;;;14.52;3.50;;;15.70;99.90;;;15.14;100.00;101368.38;4191583;28;20023;-75
2023/09/28 07:39:20;;;;;;;11.38;2.97;;;15.80;99.90;;;15.22;100.00;101363.84;4187293;28;20132;-75
2023/09/28 07:41:21;;;;;;;16.00;3.28;;;15.80;99.90;;;15.30;100.00;101369.13;4187058;28;20492;-75
2023/09/28 07:43:22;;;;;;;12.23;4.25;;;15.90;99.90;;;15.39;100.00;101361.94;4187888;28;20048;-75
2023/09/28 07:45:23;;;;;;;19.23;3.85;;;16.00;99.90;;;15.48;100.00;101361.78;4203882;28;20496;-75
2023/09/28 07:47:24;;;;;;;12.05;2.92;;;16.10;99.90;;;15.63;100.00;101361.03;4195028;28;20462;-75
2023/09/28 07:49:24;;;;;;;12.02;3.03;;;16.30;99.90;;;15.73;100.00;101343.06;4187164;28;20025;-75
2023/09/28 07:51:25;;;;;;;12.20;2.30;;;16.40;99.90;;;15.86;100.00;101349.44;4199854;28;20031;-75
2023/09/28 07:53:26;;;;;;;12.07;3.42;;;16.50;99.90;;;15.99;100.00;101356.84;4185994;28;20048;-75
2023/09/28 07:55:27;;;;;;;16.08;3.78;;;16.60;99.90;;;16.04;100.00;101346.50;4193214;28;20028;-75
2023/09/28 07:57:28;;;;;;;15.77;3.40;;;16.70;99.90;;;16.08;100.00;101347.81;4190359;28;20544;-75
2023/09/28 07:59:32;;;;;;;14.65;3.90;;;16.70;99.90;;;16.19;100.00;101352.72;4185800;28;20424;-75
2023/09/28 08:01:38;;;;;;;12.73;3.13;;;16.80;99.90;;;16.23;100.00;101346.03;4187069;28;20035;-75
2023/09/28 08:03:39;;;;;;;16.13;4.25;;;16.90;99.90;;;16.32;100.00;101352.97;4193906;28;20060;-75
2023/09/28 08:05:40;;;;;;;14.98;2.83;;;16.90;99.90;;;16.33;100.00;101349.31;4186860;28;20443;-75
2023/09/28 08:07:42;;;;;;;11.50;3.20;;;17.00;99.90;;;16.42;100.00;101360.72;4186794;28;20109;-75
2023/09/28 08:09:43;;;;;;;11.90;3.28;;;17.00;99.90;;;16.51;100.00;101359.66;4190030;28;20017;-75
2023/09/28 08:11:44;;;;;;;22.13;4.45;;;17.10;99.90;;;16.55;100.00;101359.13;4185418;28;20067;-75
2023/09/28 08:13:44;;;;;;;10.68;3.25;;;17.10;99.90;;;16.64;100.00;101364.38;4197983;28;20020;-75
2023/09/28 08:15:46;;;;;;;11.52;2.45;;;17.20;99.90;;;16.78;100.00;101355.59;4202782;28;20036;-75
2023/09/28 08:17:47;;;;;;;13.60;3.33;;;17.30;99.90;;;16.89;100.00;101363.16;4202966;28;20024;-75